Time;durP1;ratioP1;P1;durP2;ratioP2;P2;SDS_P1;SDS_P2;PMS_P1;PMS_P2;Temp;Humidity;BMP_temperature;BMP_pressure;BME280_temperature;BME280_humidity;BME280_pressure;Samples;Min_cycle;Max_cycle;Signal;HPM_P1;HPM_P2
2022/10/03 00:01:42;;;;;;;8.50;1.33;;;11.00;85.10;;;;;;5050455;28;20540;-73
2022/10/03 00:04:26;;;;;;;5.00;0.98;;;10.90;85.10;;;;;;5034000;28;21167;-73
2022/10/03 00:07:04;;;;;;;8.40;1.70;;;10.90;85.20;;;;;;5050584;28;20591;-73
2022/10/03 00:09:52;;;;;;;7.25;1.20;;;10.90;85.50;;;;;;5049227;28;20499;-73
2022/10/03 00:12:39;;;;;;;8.07;1.35;;;10.90;85.70;;;;;;5048755;28;20886;-73
2022/10/03 00:15:13;;;;;;;6.97;1.60;;;10.90;85.70;;;;;;5048807;28;20050;-73
2022/10/03 00:17:50;;;;;;;7.90;1.27;;;10.80;85.60;;;;;;5048916;28;20251;-73
2022/10/03 00:20:41;;;;;;;7.90;1.35;;;10.80;85.20;;;;;;5048587;28;20045;-73
2022/10/03 00:23:14;;;;;;;9.23;1.33;;;10.80;85.40;;;;;;5048335;28;20081;-73
2022/10/03 00:25:50;;;;;;;10.45;1.13;;;10.80;85.20;;;;;;5048501;28;20140;-73
2022/10/03 00:28:42;;;;;;;9.40;1.07;;;10.70;85.10;;;;;;5032409;28;20049;-73
2022/10/03 00:31:13;;;;;;;9.07;1.10;;;10.70;85.00;;;;;;5048697;28;20257;-73
2022/10/03 00:33:53;;;;;;;7.63;1.30;;;10.70;85.00;;;;;;5050276;28;20569;-73
2022/10/03 00:36:26;;;;;;;8.10;1.10;;;10.70;85.20;;;;;;5048558;28;20049;-73
2022/10/03 00:39:23;;;;;;;8.95;1.20;;;10.60;85.40;;;;;;5048419;28;20129;-73
2022/10/03 00:42:23;;;;;;;8.00;1.30;;;10.60;85.50;;;;;;5048203;28;20132;-73
2022/10/03 00:45:26;;;;;;;8.43;1.35;;;10.60;85.50;;;;;;5049387;28;20261;-73
2022/10/03 00:48:13;;;;;;;9.13;1.05;;;10.60;85.90;;;;;;5048448;28;20685;-73
2022/10/03 00:51:09;;;;;;;8.95;1.30;;;10.60;85.70;;;;;;5049870;28;20050;-73
2022/10/03 00:53:50;;;;;;;9.90;1.10;;;10.60;86.20;;;;;;5049878;28;20138;-73
2022/10/03 00:56:58;;;;;;;8.57;1.20;;;10.60;86.40;;;;;;5048173;28;20157;-73
2022/10/03 00:59:50;;;;;;;11.15;1.60;;;10.50;86.40;;;;;;5047996;28;20295;-73
2022/10/03 01:02:27;;;;;;;6.50;1.17;;;10.50;86.10;;;;;;5048001;28;20046;-73
2022/10/03 01:05:03;;;;;;;6.75;0.90;;;10.50;85.80;;;;;;5048017;28;20662;-73
2022/10/03 01:07:47;;;;;;;6.13;1.35;;;10.50;85.90;;;;;;5048304;28;20060;-73
2022/10/03 01:10:21;;;;;;;7.87;1.20;;;10.50;85.90;;;;;;5047660;28;20122;-74
2022/10/03 01:13:05;;;;;;;8.30;1.27;;;10.40;86.00;;;;;;5048380;28;20237;-73
2022/10/03 01:15:45;;;;;;;9.90;1.40;;;10.40;86.20;;;;;;5048024;28;20057;-73
2022/10/03 01:18:29;;;;;;;8.10;1.13;;;10.40;86.20;;;;;;5048062;28;20100;-73
2022/10/03 01:21:04;;;;;;;10.02;1.17;;;10.40;86.00;;;;;;5047734;28;20188;-73
2022/10/03 01:23:55;;;;;;;8.30;1.10;;;10.40;86.10;;;;;;5049163;28;20053;-73
2022/10/03 01:26:37;;;;;;;5.65;0.90;;;10.40;86.20;;;;;;5049523;28;20742;-73
2022/10/03 01:31:59;;;;;;;8.52;1.10;;;10.40;86.20;;;;;;5047629;28;20057;-73
2022/10/03 01:34:31;;;;;;;6.75;0.90;;;10.30;86.40;;;;;;5049636;28;20131;-73
2022/10/03 01:37:10;;;;;;;7.03;1.20;;;10.30;86.40;;;;;;5048004;28;20046;-73
2022/10/03 01:39:45;;;;;;;8.43;1.10;;;10.30;86.40;;;;;;5047452;28;20775;-73
2022/10/03 01:42:19;;;;;;;10.90;1.20;;;10.30;86.30;;;;;;5047572;28;20103;-73
2022/10/03 01:45:02;;;;;;;9.90;1.15;;;10.30;86.30;;;;;;5047554;28;20049;-73
2022/10/03 01:47:38;;;;;;;8.30;1.20;;;10.30;86.20;;;;;;5030966;28;20141;-73
2022/10/03 01:50:14;;;;;;;8.30;0.87;;;10.30;86.10;;;;;;5047418;28;21003;-73
2022/10/03 01:52:48;;;;;;;9.57;1.23;;;10.20;86.60;;;;;;5047322;28;20257;-73
2022/10/03 01:55:25;;;;;;;6.22;0.98;;;10.20;86.80;;;;;;5048925;28;20107;-73
2022/10/03 01:57:59;;;;;;;9.00;1.13;;;10.20;87.00;;;;;;5047672;28;20140;-73
2022/10/03 02:00:34;;;;;;;7.30;1.27;;;10.20;87.00;;;;;;5047407;28;20559;-73
2022/10/03 02:03:11;;;;;;;7.53;1.10;;;10.20;87.20;;;;;;5047898;28;20049;-73
2022/10/03 02:05:48;;;;;;;8.73;1.30;;;10.20;87.10;;;;;;5048075;28;20252;-73
2022/10/03 02:08:29;;;;;;;6.43;1.05;;;10.20;86.80;;;;;;5047483;28;20155;-73
2022/10/03 02:11:02;;;;;;;8.70;1.00;;;10.20;87.00;;;;;;5048711;28;20050;-73
2022/10/03 02:13:41;;;;;;;7.95;1.10;;;10.20;87.10;;;;;;5048162;28;20068;-73
2022/10/03 02:16:14;;;;;;;8.07;1.27;;;10.20;87.30;;;;;;5050841;28;20057;-73
2022/10/03 02:18:47;;;;;;;7.25;1.02;;;10.20;87.50;;;;;;5052087;28;20265;-74
2022/10/03 02:21:19;;;;;;;8.00;1.08;;;10.20;87.10;;;;;;5052177;28;20124;-73
2022/10/03 02:23:48;;;;;;;9.40;1.02;;;10.20;87.00;;;;;;5052179;28;20136;-73
2022/10/03 02:26:47;;;;;;;6.53;1.10;;;10.20;86.80;;;;;;5050646;28;20046;-73
2022/10/03 02:29:27;;;;;;;7.57;1.40;;;10.20;86.90;;;;;;5039813;28;20500;-73
2022/10/03 02:32:19;;;;;;;8.93;1.05;;;10.20;87.10;;;;;;5051864;28;20639;-73
2022/10/03 02:35:10;;;;;;;5.90;1.10;;;10.20;87.20;;;;;;5050312;28;20057;-73
2022/10/03 02:37:50;;;;;;;9.20;1.52;;;10.20;87.50;;;;;;5050685;28;20046;-73
2022/10/03 02:40:54;;;;;;;6.15;0.90;;;10.20;87.30;;;;;;5050013;28;20059;-73
2022/10/03 02:43:50;;;;;;;9.20;1.20;;;10.20;87.00;;;;;;5050380;28;20056;-73
2022/10/03 02:47:13;;;;;;;5.25;1.27;;;10.20;86.80;;;;;;5051559;28;21182;-73
2022/10/03 02:50:18;;;;;;;6.50;1.20;;;10.20;86.90;;;;;;5049947;28;20600;-73
2022/10/03 02:53:21;;;;;;;7.45;1.20;;;10.20;87.00;;;;;;5051583;28;20077;-73
2022/10/03 02:56:12;;;;;;;5.07;0.77;;;10.20;87.90;;;;;;5050079;28;20125;-73
2022/10/03 02:59:22;;;;;;;6.90;0.93;;;10.20;88.10;;;;;;5051506;28;20578;-73
2022/10/03 03:02:07;;;;;;;8.02;1.00;;;10.20;88.40;;;;;;5021396;28;20241;-73
2022/10/03 03:05:15;;;;;;;10.23;1.27;;;10.30;88.70;;;;;;5050466;28;20423;-73
2022/10/03 03:08:12;;;;;;;6.97;1.40;;;10.30;88.50;;;;;;5050058;28;20486;-73
2022/10/03 03:11:12;;;;;;;8.90;1.17;;;10.30;88.60;;;;;;5039135;28;20045;-73
2022/10/03 03:14:10;;;;;;;6.47;1.47;;;10.30;88.20;;;;;;5016451;28;20081;-74
2022/10/03 03:17:00;;;;;;;5.47;0.80;;;10.30;88.50;;;;;;5050071;28;20275;-73
2022/10/03 03:19:45;;;;;;;7.45;1.23;;;10.30;88.50;;;;;;5049769;28;20365;-73
2022/10/03 03:22:26;;;;;;;6.95;1.10;;;10.30;88.60;;;;;;5051036;28;20120;-73
2022/10/03 03:25:10;;;;;;;5.88;0.85;;;10.30;88.40;;;;;;5049559;28;20057;-73
2022/10/03 03:27:45;;;;;;;5.80;0.87;;;10.30;88.10;;;;;;5049382;28;20116;-73
2022/10/03 03:30:16;;;;;;;8.95;1.20;;;10.30;88.20;;;;;;5050640;28;20346;-73
2022/10/03 03:32:54;;;;;;;8.32;1.33;;;10.30;88.40;;;;;;5049166;28;20601;-73
2022/10/03 03:35:32;;;;;;;6.28;0.70;;;10.30;88.20;;;;;;5049456;28;20483;-73
2022/10/03 03:38:13;;;;;;;4.88;0.80;;;10.30;88.60;;;;;;5049483;28;20050;-73
2022/10/03 03:40:52;;;;;;;9.10;1.00;;;10.30;88.60;;;;;;5049063;28;20042;-73
2022/10/03 03:43:37;;;;;;;7.13;0.98;;;10.30;88.40;;;;;;5049364;28;20269;-73
2022/10/03 03:46:21;;;;;;;7.57;1.20;;;10.30;88.30;;;;;;5050380;28;20073;-73
2022/10/03 03:49:08;;;;;;;5.97;0.98;;;10.20;88.20;;;;;;5049107;28;20057;-74
2022/10/03 03:51:42;;;;;;;7.97;1.27;;;10.30;88.20;;;;;;5049243;28;20128;-73
2022/10/03 03:54:49;;;;;;;5.63;0.97;;;10.30;88.00;;;;;;5049824;28;20046;-73
2022/10/03 03:57:31;;;;;;;7.60;0.95;;;10.20;88.00;;;;;;5049247;28;20252;-73
2022/10/03 04:00:07;;;;;;;7.68;0.90;;;10.20;87.80;;;;;;5049059;28;20053;-73
2022/10/03 04:03:01;;;;;;;6.45;1.00;;;10.20;87.90;;;;;;5049287;28;20045;-73
2022/10/03 04:05:44;;;;;;;7.97;1.00;;;10.20;87.80;;;;;;5048943;28;20055;-73
2022/10/03 04:08:43;;;;;;;8.63;1.00;;;10.10;87.90;;;;;;5048736;28;20089;-73
2022/10/03 04:11:26;;;;;;;5.82;0.98;;;10.10;88.00;;;;;;5048484;28;20686;-73
2022/10/03 04:14:31;;;;;;;7.32;1.33;;;10.10;88.10;;;;;;5050229;28;20104;-74
2022/10/03 04:20:26;;;;;;;5.47;0.80;;;10.10;88.10;;;;;;5032018;28;20046;-73
2022/10/03 04:23:06;;;;;;;4.57;0.90;;;10.10;88.20;;;;;;5050232;28;20080;-73
2022/10/03 04:25:49;;;;;;;5.80;0.80;;;10.00;88.00;;;;;;5048913;28;20808;-73
2022/10/03 04:28:55;;;;;;;7.03;1.10;;;10.00;88.40;;;;;;5050125;28;20053;-73
2022/10/03 04:31:32;;;;;;;5.72;0.80;;;10.00;88.90;;;;;;5048584;28;20049;-73
2022/10/03 04:34:13;;;;;;;7.32;1.08;;;10.00;88.90;;;;;;5048726;28;20084;-73
2022/10/03 04:37:04;;;;;;;6.47;0.70;;;10.00;88.50;;;;;;5048023;28;20045;-73
2022/10/03 04:39:41;;;;;;;8.63;1.33;;;10.00;88.60;;;;;;5049875;28;20779;-73
2022/10/03 04:42:18;;;;;;;4.28;0.88;;;10.00;88.40;;;;;;5049933;28;20120;-73
2022/10/03 04:45:04;;;;;;;7.40;1.70;;;10.00;88.50;;;;;;5048423;28;20053;-73
2022/10/03 04:47:40;;;;;;;7.03;1.40;;;10.00;88.50;;;;;;5048334;28;20107;-73
2022/10/03 04:50:21;;;;;;;4.57;0.90;;;10.00;88.60;;;;;;5049548;28;20076;-73
2022/10/03 04:52:56;;;;;;;6.07;1.00;;;10.00;88.50;;;;;;5049620;28;20256;-73
2022/10/03 04:55:34;;;;;;;4.93;0.80;;;10.00;88.60;;;;;;5048424;28;20125;-73
2022/10/03 04:58:07;;;;;;;3.83;1.00;;;9.90;88.60;;;;;;5048488;28;20455;-73
2022/10/03 05:00:46;;;;;;;7.28;0.80;;;9.90;88.70;;;;;;5047757;28;20081;-73
2022/10/03 05:03:21;;;;;;;6.77;1.03;;;9.80;88.90;;;;;;5049682;28;20072;-73
2022/10/03 05:05:55;;;;;;;5.93;0.95;;;9.80;89.00;;;;;;5048559;28;20261;-73
2022/10/03 05:08:38;;;;;;;4.32;0.90;;;9.80;88.70;;;;;;5048151;28;20133;-73
2022/10/03 05:11:14;;;;;;;5.88;1.33;;;9.80;88.70;;;;;;5049109;28;20057;-73
2022/10/03 05:13:53;;;;;;;5.32;1.67;;;9.80;88.60;;;;;;5048111;28;20077;-73
2022/10/03 05:16:31;;;;;;;6.73;1.23;;;9.80;88.50;;;;;;5049583;28;20080;-73
2022/10/03 05:19:18;;;;;;;6.32;1.13;;;9.80;88.40;;;;;;5047661;28;20766;-73
2022/10/03 05:21:55;;;;;;;4.95;1.02;;;9.80;88.40;;;;;;5048571;28;20103;-73
2022/10/03 05:24:34;;;;;;;5.95;1.20;;;9.80;88.40;;;;;;5049646;28;20058;-73
2022/10/03 05:27:11;;;;;;;7.18;1.00;;;9.80;88.70;;;;;;5047781;28;20101;-73
2022/10/03 05:29:43;;;;;;;6.73;1.10;;;9.80;88.90;;;;;;5047819;28;20058;-73
2022/10/03 05:32:23;;;;;;;4.93;1.00;;;9.80;88.90;;;;;;5048174;28;20366;-73
2022/10/03 05:35:14;;;;;;;4.35;1.02;;;9.80;88.70;;;;;;5049355;28;20567;-73
2022/10/03 05:38:18;;;;;;;4.88;1.08;;;9.80;88.70;;;;;;5049041;28;20582;-73
2022/10/03 05:40:59;;;;;;;5.53;1.30;;;9.70;88.90;;;;;;5048573;28;20460;-73
2022/10/03 05:43:35;;;;;;;6.93;0.87;;;9.80;88.80;;;;;;5047927;28;20096;-73
2022/10/03 05:46:07;;;;;;;8.15;1.08;;;9.80;88.70;;;;;;5030595;28;20284;-73
2022/10/03 05:48:48;;;;;;;5.68;1.13;;;9.80;88.70;;;;;;5050306;28;20142;-73
2022/10/03 05:51:50;;;;;;;5.43;0.90;;;9.70;88.60;;;;;;5051012;28;20143;-73
2022/10/03 05:55:01;;;;;;;6.68;0.90;;;9.80;88.50;;;;;;5050817;28;20045;-73
2022/10/03 05:58:01;;;;;;;7.43;1.13;;;9.70;88.30;;;;;;5051298;28;20053;-73
2022/10/03 06:00:41;;;;;;;5.90;1.02;;;9.80;88.20;;;;;;5051894;28;20813;-73
2022/10/03 06:03:45;;;;;;;4.00;0.80;;;9.70;88.20;;;;;;5050824;28;20041;-73
2022/10/03 06:06:21;;;;;;;5.15;0.85;;;9.70;88.20;;;;;;5051532;28;20062;-73
2022/10/03 06:09:35;;;;;;;6.13;1.00;;;9.80;88.30;;;;;;5051338;28;20049;-74
2022/10/03 06:12:09;;;;;;;2.53;0.40;;;9.80;88.60;;;;;;5050941;28;20056;-73
2022/10/03 06:14:53;;;;;;;9.48;1.20;;;9.80;88.50;;;;;;5047337;28;20250;-73
2022/10/03 06:17:55;;;;;;;4.72;1.08;;;9.80;88.40;;;;;;5036709;28;20053;-73
2022/10/03 06:21:01;;;;;;;5.75;1.10;;;9.80;88.40;;;;;;5032585;28;20508;-73
2022/10/03 06:23:52;;;;;;;6.68;1.13;;;9.90;88.40;;;;;;5031841;28;20622;-73
2022/10/03 06:26:45;;;;;;;9.83;1.43;;;10.00;88.50;;;;;;5034333;28;20581;-73
2022/10/03 06:29:45;;;;;;;7.18;1.40;;;10.00;88.50;;;;;;5035095;28;20759;-73
2022/10/03 06:32:49;;;;;;;6.82;1.10;;;10.00;88.60;;;;;;5030004;28;20049;-73
2022/10/03 06:35:54;;;;;;;5.68;0.75;;;10.00;88.70;;;;;;5044078;28;20492;-73
2022/10/03 06:38:53;;;;;;;5.82;1.10;;;10.00;88.60;;;;;;5042180;28;20076;-73
2022/10/03 06:42:05;;;;;;;8.80;1.13;;;10.10;89.20;;;;;;5042039;28;20080;-74
2022/10/03 06:45:01;;;;;;;7.50;0.90;;;10.10;89.40;;;;;;5034778;28;20800;-73
2022/10/03 06:47:40;;;;;;;3.92;0.60;;;10.20;89.40;;;;;;5042773;28;20042;-73
2022/10/03 06:50:40;;;;;;;8.43;0.93;;;10.20;89.20;;;;;;5045714;28;20045;-73
2022/10/03 06:53:50;;;;;;;4.68;1.00;;;10.30;89.50;;;;;;5046535;28;20049;-73
2022/10/03 06:59:30;;;;;;;5.90;1.30;;;10.30;89.80;;;;;;5145709;27;20816;-73
2022/10/03 07:02:27;;;;;;;6.93;0.73;;;10.40;89.70;;;;;;5145890;27;20171;-73
2022/10/03 07:05:13;;;;;;;6.60;0.90;;;10.40;89.80;;;;;;5123958;27;20062;-73
2022/10/03 07:08:18;;;;;;;7.45;1.10;;;10.50;89.80;;;;;;5126394;27;20055;-73
2022/10/03 07:11:04;;;;;;;6.32;1.02;;;10.50;89.70;;;;;;5129396;27;20044;-73
2022/10/03 07:14:09;;;;;;;6.20;1.20;;;10.50;90.20;;;;;;5145559;27;20052;-72
2022/10/03 07:17:21;;;;;;;6.95;1.20;;;10.60;89.90;;;;;;5142910;27;20048;-73
2022/10/03 07:20:06;;;;;;;7.80;1.10;;;10.60;89.60;;;;;;5089378;27;20052;-73
2022/10/03 07:23:12;;;;;;;8.93;1.42;;;10.70;89.50;;;;;;5145217;27;20071;-73
2022/10/03 07:26:06;;;;;;;7.60;1.27;;;10.70;89.40;;;;;;5139395;27;20596;-73
2022/10/03 07:29:01;;;;;;;7.17;0.90;;;10.80;89.50;;;;;;5135096;27;20631;-73
2022/10/03 07:31:45;;;;;;;6.25;1.00;;;10.80;89.60;;;;;;5140582;27;20097;-73
2022/10/03 07:34:53;;;;;;;6.97;1.00;;;10.90;89.70;;;;;;5141502;27;20594;-72
2022/10/03 07:40:33;;;;;;;5.05;1.05;;;11.00;89.50;;;;;;5126905;27;20522;-73
2022/10/03 07:43:39;;;;;;;5.63;0.80;;;11.00;89.50;;;;;;5132726;27;20527;-73
2022/10/03 07:46:39;;;;;;;7.32;0.90;;;11.10;89.50;;;;;;5125653;27;20139;-73
2022/10/03 07:49:20;;;;;;;7.82;1.08;;;11.10;89.30;;;;;;5137645;27;20054;-74
2022/10/03 07:52:11;;;;;;;6.72;0.98;;;11.20;89.20;;;;;;5125640;27;20052;-73
2022/10/03 07:54:57;;;;;;;6.80;1.15;;;11.30;89.20;;;;;;5127172;27;20097;-74
2022/10/03 07:57:58;;;;;;;8.93;1.23;;;11.40;89.20;;;;;;5125541;27;20055;-74
2022/10/03 08:00:28;;;;;;;5.53;1.10;;;11.40;89.10;;;;;;5123773;27;20105;-74
2022/10/03 08:03:44;;;;;;;6.57;1.15;;;11.50;89.30;;;;;;5125051;27;20112;-74
2022/10/03 08:06:20;;;;;;;6.95;1.10;;;11.50;89.30;;;;;;5125734;27;20540;-73
2022/10/03 08:09:23;;;;;;;6.78;1.08;;;11.60;89.30;;;;;;5121747;27;20048;-74
2022/10/03 08:12:20;;;;;;;5.43;0.80;;;11.70;89.20;;;;;;5110489;28;20052;-74
2022/10/03 08:15:03;;;;;;;6.25;0.88;;;11.80;89.10;;;;;;5142588;27;20043;-74
2022/10/03 08:18:00;;;;;;;6.20;1.10;;;11.90;89.10;;;;;;5112834;27;20113;-73
2022/10/03 08:20:51;;;;;;;5.03;1.25;;;11.90;89.40;;;;;;5111497;27;20536;-74
2022/10/03 08:23:44;;;;;;;5.93;0.95;;;12.00;89.10;;;;;;5106263;28;20123;-74
2022/10/03 08:26:19;;;;;;;5.67;0.83;;;12.10;89.00;;;;;;5110238;28;20071;-73
2022/10/03 08:29:10;;;;;;;7.32;0.80;;;12.20;89.00;;;;;;5109767;28;20984;-74
2022/10/03 08:32:12;;;;;;;8.88;0.82;;;12.30;88.90;;;;;;5111727;28;20052;-73
2022/10/03 08:35:03;;;;;;;6.97;1.13;;;12.30;88.80;;;;;;5095858;27;20603;-74
2022/10/03 08:38:02;;;;;;;7.15;0.60;;;12.40;88.80;;;;;;5111212;28;20193;-74
2022/10/03 08:41:04;;;;;;;6.07;0.80;;;12.50;88.80;;;;;;5100495;28;20048;-74
2022/10/03 08:44:14;;;;;;;5.32;0.63;;;12.60;88.70;;;;;;5146048;27;20531;-74
2022/10/03 08:47:12;;;;;;;6.88;0.77;;;12.70;88.40;;;;;;5107379;27;20588;-74
2022/10/03 08:50:13;;;;;;;6.50;0.80;;;12.80;88.20;;;;;;5111484;28;20056;-73
2022/10/03 08:52:59;;;;;;;6.85;0.77;;;12.90;88.10;;;;;;5128257;27;20041;-74
2022/10/03 08:55:45;;;;;;;6.77;0.90;;;13.00;88.00;;;;;;5112826;28;20052;-74
2022/10/03 08:58:36;;;;;;;5.28;0.80;;;13.00;88.00;;;;;;5112335;28;20107;-74
2022/10/03 09:01:33;;;;;;;5.50;0.80;;;13.10;87.90;;;;;;5128678;27;20131;-73
2022/10/03 09:04:39;;;;;;;7.85;1.00;;;13.10;87.80;;;;;;5124280;27;20138;-74
2022/10/03 09:07:30;;;;;;;3.90;0.57;;;13.30;87.70;;;;;;5120696;27;20051;-74
2022/10/03 09:10:32;;;;;;;5.67;0.70;;;13.30;87.80;;;;;;5119075;27;20048;-74
2022/10/03 09:13:37;;;;;;;5.80;0.77;;;13.50;87.30;;;;;;5153000;27;20132;-73
2022/10/03 09:16:50;;;;;;;7.47;0.90;;;13.50;86.90;;;;;;5080429;27;20123;-74
2022/10/03 09:19:38;;;;;;;7.72;0.90;;;13.60;86.90;;;;;;5057511;28;20053;-74
2022/10/03 09:22:48;;;;;;;8.32;1.35;;;13.70;86.60;;;;;;5053216;28;20153;-74
2022/10/03 09:25:33;;;;;;;6.90;0.97;;;13.70;86.10;;;;;;5058683;27;20055;-74
2022/10/03 09:28:29;;;;;;;5.13;0.63;;;13.90;85.80;;;;;;5123852;27;20129;-74
2022/10/03 09:31:08;;;;;;;6.38;0.90;;;13.90;85.70;;;;;;5105139;27;20052;-75
2022/10/03 09:34:17;;;;;;;7.18;0.70;;;13.90;85.60;;;;;;5118122;27;20058;-75
2022/10/03 09:37:20;;;;;;;4.85;0.73;;;14.00;85.70;;;;;;5120920;27;20520;-75
2022/10/03 09:40:16;;;;;;;6.07;1.40;;;14.10;85.70;;;;;;5125375;27;20062;-75
2022/10/03 09:43:30;;;;;;;4.57;0.63;;;14.10;85.60;;;;;;5153169;27;20558;-74
2022/10/03 09:46:31;;;;;;;6.97;0.85;;;14.20;85.30;;;;;;5114677;27;20558;-74
2022/10/03 09:52:06;;;;;;;5.15;0.60;;;14.30;84.60;;;;;;5145151;27;20383;-74
2022/10/03 09:55:06;;;;;;;5.75;0.82;;;14.40;84.70;;;;;;5135052;27;20513;-74
2022/10/03 09:57:59;;;;;;;6.13;0.60;;;14.40;84.30;;;;;;5135648;27;20127;-74
2022/10/03 10:00:31;;;;;;;5.97;0.50;;;14.50;84.30;;;;;;5135394;27;20055;-75
2022/10/03 10:03:19;;;;;;;6.30;0.45;;;14.60;82.10;;;;;;5138815;27;20047;-75
2022/10/03 10:06:22;;;;;;;6.93;0.63;;;14.60;81.70;;;;;;5131440;27;20564;-74
2022/10/03 10:09:29;;;;;;;7.50;0.57;;;14.70;80.90;;;;;;5137087;27;20060;-74
2022/10/03 10:12:45;;;;;;;5.53;0.40;;;14.70;81.30;;;;;;5134599;27;20048;-74
2022/10/03 10:15:40;;;;;;;6.80;0.60;;;14.80;80.20;;;;;;5121956;27;20052;-74
2022/10/03 10:18:49;;;;;;;5.47;0.50;;;14.90;80.10;;;;;;5134126;27;20123;-74
2022/10/03 10:21:55;;;;;;;6.43;0.57;;;14.90;80.60;;;;;;5142865;27;20055;-74
2022/10/03 10:25:02;;;;;;;5.55;0.50;;;15.00;79.90;;;;;;5120386;27;20561;-74
2022/10/03 10:28:11;;;;;;;7.47;0.80;;;15.00;78.50;;;;;;5143692;27;20050;-75
2022/10/03 10:31:13;;;;;;;5.97;0.57;;;15.00;76.60;;;;;;5093725;27;20505;-74
2022/10/03 10:34:15;;;;;;;5.50;0.50;;;15.10;76.60;;;;;;5114936;27;20146;-74
2022/10/03 10:37:24;;;;;;;5.70;0.80;;;15.20;76.30;;;;;;5143407;27;20058;-74
2022/10/03 10:40:30;;;;;;;7.22;0.70;;;15.20;77.20;;;;;;5143097;27;20158;-74
2022/10/03 10:43:34;;;;;;;2.53;0.40;;;15.30;75.20;;;;;;5119409;27;20134;-74
2022/10/03 10:46:24;;;;;;;4.45;0.57;;;15.30;74.50;;;;;;5144182;27;20074;-75
2022/10/03 10:49:30;;;;;;;4.40;0.60;;;15.40;75.20;;;;;;5152530;27;20059;-74
2022/10/03 10:52:42;;;;;;;7.97;0.85;;;15.40;76.10;;;;;;5131374;27;20521;-74
2022/10/03 10:55:42;;;;;;;7.45;0.68;;;15.50;76.00;;;;;;5071678;27;20047;-74
2022/10/03 10:58:48;;;;;;;5.43;0.80;;;15.50;74.70;;;;;;5145755;27;20052;-74
2022/10/03 11:02:00;;;;;;;2.95;0.30;;;15.50;74.70;;;;;;5142383;27;20058;-74
2022/10/03 11:05:04;;;;;;;7.13;0.80;;;15.60;75.10;;;;;;5071443;27;20116;-74
2022/10/03 11:08:13;;;;;;;4.65;0.60;;;15.60;74.80;;;;;;5114257;27;20404;-74
2022/10/03 11:10:59;;;;;;;7.35;1.17;;;15.80;75.30;;;;;;5055894;27;20052;-74
2022/10/03 11:14:08;;;;;;;4.90;0.50;;;15.80;75.80;;;;;;5108404;27;20043;-74
2022/10/03 11:17:25;;;;;;;8.68;0.73;;;15.80;75.60;;;;;;5123273;27;20056;-75
2022/10/03 11:20:25;;;;;;;5.30;0.52;;;16.00;74.90;;;;;;5021729;28;20133;-74
2022/10/03 11:23:31;;;;;;;3.97;0.63;;;16.00;72.50;;;;;;4973496;28;20428;-73
2022/10/03 11:26:40;;;;;;;5.13;0.60;;;16.00;72.00;;;;;;5109929;27;20056;-73
2022/10/03 11:29:43;;;;;;;4.80;0.70;;;16.00;71.20;;;;;;5101251;27;20050;-73
2022/10/03 11:33:04;;;;;;;6.00;0.40;;;16.00;70.90;;;;;;5118638;27;20051;-73
2022/10/03 11:36:10;;;;;;;4.75;0.60;;;16.00;71.70;;;;;;5058332;28;20049;-73
2022/10/03 11:38:48;;;;;;;7.85;0.73;;;16.10;72.70;;;;;;5092766;28;20060;-73
2022/10/03 11:41:23;;;;;;;5.97;0.68;;;16.10;71.80;;;;;;5118002;27;20048;-74
2022/10/03 11:44:08;;;;;;;5.57;0.67;;;16.10;72.30;;;;;;5152644;27;20048;-74
2022/10/03 11:47:04;;;;;;;7.55;0.80;;;16.10;72.70;;;;;;5125909;27;20055;-74
2022/10/03 11:50:05;;;;;;;6.75;0.70;;;16.10;72.50;;;;;;5115818;27;20047;-74
2022/10/03 11:52:38;;;;;;;6.22;0.80;;;16.10;72.30;;;;;;5153165;27;20047;-74
2022/10/03 11:55:23;;;;;;;3.05;0.50;;;16.10;72.10;;;;;;5127940;27;20445;-74
2022/10/03 11:58:03;;;;;;;4.97;0.67;;;16.20;71.80;;;;;;5127601;27;20054;-74
2022/10/03 12:00:35;;;;;;;6.72;0.73;;;16.20;71.90;;;;;;5129260;27;20052;-74
2022/10/03 12:03:16;;;;;;;4.70;0.45;;;16.20;71.60;;;;;;5128345;27;20142;-74
2022/10/03 12:05:51;;;;;;;6.20;0.50;;;16.20;72.00;;;;;;5151358;27;20055;-74
2022/10/03 12:11:22;;;;;;;3.80;0.57;;;16.20;72.30;;;;;;5130149;27;20071;-73
2022/10/03 12:14:06;;;;;;;3.90;0.40;;;16.30;72.80;;;;;;5123977;27;20048;-74
2022/10/03 12:16:50;;;;;;;5.00;0.80;;;16.40;72.00;;;;;;5118579;27;20072;-74
2022/10/03 12:19:29;;;;;;;6.95;0.88;;;16.40;72.30;;;;;;5120435;27;20048;-75
2022/10/03 12:22:05;;;;;;;6.80;0.98;;;16.40;72.30;;;;;;5121581;27;20463;-74
2022/10/03 12:24:36;;;;;;;7.17;0.77;;;16.40;72.40;;;;;;5115906;27;20072;-74
2022/10/03 12:27:16;;;;;;;5.35;0.40;;;16.40;72.20;;;;;;5120285;27;20123;-74
2022/10/03 12:29:51;;;;;;;4.43;0.63;;;16.40;71.80;;;;;;5118033;27;20145;-74
2022/10/03 12:32:28;;;;;;;5.20;0.60;;;16.40;72.20;;;;;;5119229;27;20048;-75
2022/10/03 12:35:07;;;;;;;5.40;0.60;;;16.50;71.90;;;;;;5118033;27;20098;-75
2022/10/03 12:38:02;;;;;;;5.83;0.73;;;16.50;71.80;;;;;;5121771;27;20055;-75
2022/10/03 12:40:35;;;;;;;4.57;0.50;;;16.50;71.10;;;;;;5126649;27;20058;-74
2022/10/03 12:43:11;;;;;;;3.78;0.47;;;16.50;72.20;;;;;;5125010;27;20058;-75
2022/10/03 12:45:43;;;;;;;5.82;0.75;;;16.60;71.40;;;;;;5120521;27;20430;-74
2022/10/03 12:48:27;;;;;;;5.25;0.60;;;16.60;70.90;;;;;;5125642;27;20054;-75
2022/10/03 12:51:01;;;;;;;5.93;0.73;;;16.60;71.20;;;;;;5127967;27;20097;-75
2022/10/03 12:53:44;;;;;;;3.90;0.60;;;16.70;71.30;;;;;;5146697;27;20048;-76
2022/10/03 12:56:18;;;;;;;5.13;0.75;;;16.70;70.90;;;;;;5119601;27;20075;-75
2022/10/03 12:58:54;;;;;;;6.68;0.73;;;16.70;70.80;;;;;;5118494;27;20476;-75
2022/10/03 13:01:36;;;;;;;7.82;0.73;;;16.70;70.70;;;;;;5118763;27;20048;-74
2022/10/03 13:04:13;;;;;;;7.43;0.90;;;16.70;70.40;;;;;;5116909;27;20080;-74
2022/10/03 13:06:45;;;;;;;4.05;0.60;;;16.70;70.30;;;;;;5116820;27;20666;-74
2022/10/03 13:09:29;;;;;;;3.85;0.45;;;16.70;70.70;;;;;;5124361;27;20094;-76
2022/10/03 13:12:06;;;;;;;4.25;0.70;;;16.70;69.10;;;;;;5131271;27;20078;-75
2022/10/03 13:15:06;;;;;;;7.78;0.80;;;16.70;70.00;;;;;;5129076;27;20461;-73
2022/10/03 13:17:41;;;;;;;5.03;0.70;;;16.70;69.60;;;;;;5151195;27;20123;-76
2022/10/03 13:20:16;;;;;;;6.38;0.93;;;16.70;70.00;;;;;;5112811;27;20043;-77
2022/10/03 13:22:50;;;;;;;4.35;0.60;;;16.80;70.20;;;;;;5111796;27;20059;-77
2022/10/03 13:25:21;;;;;;;6.28;0.80;;;16.70;70.10;;;;;;5106400;27;20082;-76
2022/10/03 13:27:53;;;;;;;7.70;0.70;;;16.80;70.20;;;;;;5109487;27;20059;-77
2022/10/03 13:30:24;;;;;;;6.13;0.70;;;16.80;70.50;;;;;;5114848;27;20151;-76
2022/10/03 13:32:58;;;;;;;4.30;0.60;;;16.80;70.90;;;;;;5099109;27;20052;-76
2022/10/03 13:38:57;;;;;;;5.05;0.93;;;16.80;70.30;;;;;;5121299;27;20044;-75
2022/10/03 13:41:48;;;;;;;5.03;0.60;;;16.90;70.90;;;;;;5119974;27;20121;-76
2022/10/03 13:44:19;;;;;;;3.07;0.60;;;16.90;71.30;;;;;;5116698;27;21117;-76
2022/10/03 13:46:59;;;;;;;4.53;0.70;;;16.90;70.40;;;;;;4988660;27;20996;-75
2022/10/03 13:49:32;;;;;;;4.75;0.70;;;17.00;70.50;;;;;;5023498;28;20086;-76
2022/10/03 13:52:06;;;;;;;6.05;0.77;;;17.00;70.70;;;;;;5072274;28;20155;-76
2022/10/03 13:55:00;;;;;;;5.53;0.80;;;17.00;71.20;;;;;;5075666;28;20112;-75
2022/10/03 13:57:32;;;;;;;4.03;0.70;;;17.00;71.50;;;;;;5064639;28;20037;-76
2022/10/03 14:00:07;;;;;;;5.65;0.60;;;17.10;70.80;;;;;;5086626;28;20059;-76
2022/10/03 14:03:00;;;;;;;4.95;0.50;;;17.10;70.30;;;;;;5089245;28;20068;-76
2022/10/03 14:05:58;;;;;;;4.45;0.60;;;17.20;70.50;;;;;;5091481;28;20048;-76
2022/10/03 14:08:53;;;;;;;6.78;0.93;;;17.20;70.90;;;;;;5088040;28;20118;-76
2022/10/03 14:11:24;;;;;;;4.60;0.70;;;17.20;70.90;;;;;;5091707;28;20248;-76
2022/10/03 14:14:08;;;;;;;4.57;0.90;;;17.30;71.40;;;;;;5090362;28;20134;-76
2022/10/03 14:16:40;;;;;;;5.07;0.55;;;17.40;70.80;;;;;;5082623;28;20080;-76
2022/10/03 14:19:15;;;;;;;6.03;0.85;;;17.40;69.50;;;;;;5084181;28;20044;-76
2022/10/03 14:21:53;;;;;;;4.47;0.70;;;17.40;69.90;;;;;;5088851;28;20079;-76
2022/10/03 14:24:38;;;;;;;4.80;0.70;;;17.50;70.10;;;;;;5089463;28;20136;-76
2022/10/03 14:27:32;;;;;;;4.03;0.65;;;17.50;70.00;;;;;;5088942;28;20072;-76
2022/10/03 14:30:05;;;;;;;4.72;0.63;;;17.60;69.70;;;;;;5088175;28;20087;-76
2022/10/03 14:32:39;;;;;;;5.50;0.47;;;17.60;68.60;;;;;;5088005;28;20063;-76
2022/10/03 14:35:19;;;;;;;7.10;0.70;;;17.60;68.40;;;;;;5088477;28;20496;-76
2022/10/03 14:37:53;;;;;;;4.87;0.60;;;17.60;68.30;;;;;;5090687;28;20056;-76
2022/10/03 14:40:26;;;;;;;5.03;0.70;;;17.50;68.00;;;;;;5073814;28;20124;-76
2022/10/03 14:43:20;;;;;;;4.43;0.77;;;17.50;68.30;;;;;;5073473;28;20056;-76
2022/10/03 14:45:50;;;;;;;4.28;0.60;;;17.50;68.10;;;;;;5081229;28;20045;-76
2022/10/03 14:48:21;;;;;;;4.25;0.60;;;17.50;68.30;;;;;;5081960;28;20127;-76
2022/10/03 14:50:53;;;;;;;4.23;0.50;;;17.50;67.40;;;;;;5086469;28;20087;-75
2022/10/03 14:53:24;;;;;;;4.00;0.70;;;17.50;67.60;;;;;;5084322;28;20049;-76
2022/10/03 14:55:59;;;;;;;5.20;0.82;;;17.50;67.70;;;;;;5074670;28;20060;-76